createdAt,value
2022-08-18T00:01:05.327Z,16
2022-08-18T00:07:05.330Z,17
2022-08-18T00:13:05.345Z,17
2022-08-18T00:19:09.262Z,17
2022-08-18T00:25:05.322Z,16
2022-08-18T00:31:05.330Z,18
2022-08-18T00:37:05.321Z,17
2022-08-18T00:43:05.342Z,18
2022-08-18T00:49:05.390Z,20
2022-08-18T00:55:05.310Z,20
2022-08-18T01:01:05.433Z,19
2022-08-18T01:07:05.338Z,18
2022-08-18T01:13:05.312Z,19
2022-08-18T01:19:05.323Z,18
2022-08-18T01:25:05.330Z,18
2022-08-18T01:31:05.348Z,16
2022-08-18T01:37:05.354Z,16
2022-08-18T01:43:05.377Z,17
2022-08-18T01:49:05.332Z,18
2022-08-18T01:55:05.350Z,18
2022-08-18T02:01:05.350Z,18
2022-08-18T02:07:05.362Z,19
2022-08-18T02:13:05.338Z,20
2022-08-18T02:19:05.374Z,20
2022-08-18T02:25:06.740Z,21
2022-08-18T02:31:05.389Z,22
2022-08-18T02:37:05.366Z,23
2022-08-18T02:43:05.368Z,26
2022-08-18T02:49:05.355Z,24
2022-08-18T02:55:05.352Z,26
2022-08-18T03:01:05.417Z,28
2022-08-18T03:07:05.374Z,29
2022-08-18T03:13:05.379Z,29
2022-08-18T03:19:05.356Z,27
2022-08-18T03:25:05.344Z,26
2022-08-18T03:31:05.364Z,26
2022-08-18T03:37:05.507Z,22
2022-08-18T03:43:05.366Z,21
2022-08-18T03:49:05.364Z,21
2022-08-18T03:55:05.351Z,21
2022-08-18T04:01:05.371Z,21
2022-08-18T04:07:05.370Z,22
2022-08-18T04:13:05.364Z,23
2022-08-18T04:19:05.388Z,24
2022-08-18T04:25:05.353Z,26
2022-08-18T04:31:05.393Z,26
2022-08-18T04:37:05.378Z,25
2022-08-18T04:43:05.398Z,25
2022-08-18T04:49:05.389Z,25
2022-08-18T04:55:05.387Z,24
2022-08-18T05:01:05.554Z,23
2022-08-18T05:07:05.384Z,25
2022-08-18T05:13:05.387Z,22
2022-08-18T05:19:05.984Z,22
2022-08-18T05:25:05.388Z,22
2022-08-18T05:31:05.829Z,22
2022-08-18T05:37:05.417Z,21
2022-08-18T05:43:05.405Z,22
2022-08-18T05:49:05.391Z,22
2022-08-18T05:55:05.408Z,22
2022-08-18T06:01:05.409Z,20
2022-08-18T06:07:05.427Z,20
2022-08-18T06:13:05.406Z,25
2022-08-18T06:19:05.395Z,23
2022-08-18T06:25:05.390Z,27
2022-08-18T06:31:05.397Z,35
2022-08-18T06:37:05.401Z,33
2022-08-18T06:43:05.395Z,32
2022-08-18T06:49:05.399Z,31
2022-08-18T06:55:05.386Z,26
2022-08-18T07:01:05.674Z,27
2022-08-18T07:07:05.402Z,29
2022-08-18T07:13:05.401Z,27
2022-08-18T07:19:05.406Z,26
2022-08-18T07:25:05.818Z,26
2022-08-18T07:31:16.467Z,30
2022-08-18T07:37:05.410Z,29
2022-08-18T07:43:05.423Z,32
2022-08-18T07:49:05.733Z,31
2022-08-18T07:55:05.411Z,31
2022-08-18T08:01:05.424Z,31
2022-08-18T08:07:24.061Z,31
2022-08-18T08:13:09.754Z,30
2022-08-18T08:19:11.275Z,30
2022-08-18T08:25:13.697Z,29
2022-08-18T08:31:33.196Z,29
2022-08-18T08:37:05.450Z,25
2022-08-18T08:43:05.411Z,30
2022-08-18T08:49:05.447Z,29
2022-08-18T08:55:05.474Z,29
2022-08-18T09:01:05.440Z,29
2022-08-18T09:07:05.407Z,28
2022-08-18T09:13:05.436Z,27
2022-08-18T09:19:05.425Z,29
2022-08-18T09:25:05.441Z,31
2022-08-18T09:31:05.493Z,30
2022-08-18T09:37:05.432Z,32
2022-08-18T09:43:05.864Z,30
2022-08-18T09:49:05.410Z,30
2022-08-18T09:55:05.413Z,28
2022-08-18T10:01:05.454Z,28
2022-08-18T10:07:05.425Z,27
2022-08-18T10:13:05.457Z,29
2022-08-18T10:19:05.445Z,29
2022-08-18T10:25:22.199Z,30
2022-08-18T10:37:06.429Z,29
2022-08-18T10:43:26.833Z,28
2022-08-18T10:49:05.497Z,26
2022-08-18T10:55:06.275Z,26
2022-08-18T11:01:05.466Z,23
2022-08-18T11:07:07.577Z,22
2022-08-18T11:13:08.923Z,22
2022-08-18T11:19:05.478Z,23
2022-08-18T11:25:05.475Z,24
2022-08-18T11:31:06.561Z,22
2022-08-18T11:37:05.452Z,21
2022-08-18T11:43:05.477Z,20
2022-08-18T11:49:05.475Z,20
2022-08-18T11:55:14.722Z,22
2022-08-18T12:01:05.473Z,19
2022-08-18T12:07:05.491Z,20
2022-08-18T12:13:05.493Z,21
2022-08-18T12:19:05.495Z,20
2022-08-18T12:25:05.497Z,18
2022-08-18T12:31:14.892Z,18
2022-08-18T12:37:14.292Z,19
2022-08-18T12:43:05.736Z,18
2022-08-18T12:49:05.769Z,18
2022-08-18T12:55:05.519Z,17
2022-08-18T13:01:05.569Z,16
2022-08-18T13:07:05.993Z,17
2022-08-18T13:13:05.554Z,16
2022-08-18T13:19:06.084Z,14
2022-08-18T13:25:05.759Z,16
2022-08-18T13:31:05.736Z,17
2022-08-18T13:37:05.519Z,15
2022-08-18T13:43:09.129Z,17
2022-08-18T13:49:05.514Z,14
2022-08-18T13:55:08.156Z,14
2022-08-18T14:01:39.660Z,15
2022-08-18T14:07:09.617Z,14
2022-08-18T14:13:20.076Z,13
2022-08-18T14:19:09.543Z,12
2022-08-18T14:25:05.539Z,13
2022-08-18T14:31:07.020Z,15
2022-08-18T14:37:05.565Z,14
2022-08-18T14:43:07.999Z,15
2022-08-18T14:49:05.521Z,13
2022-08-18T14:55:05.505Z,14
2022-08-18T15:01:08.431Z,14
2022-08-18T15:07:05.526Z,13
2022-08-18T15:13:05.529Z,13
2022-08-18T15:19:58.223Z,13
2022-08-18T15:25:06.336Z,13
2022-08-18T15:37:09.783Z,13
2022-08-18T15:43:05.540Z,13
2022-08-18T15:49:05.589Z,13
2022-08-18T15:55:05.558Z,13
2022-08-18T16:01:30.026Z,11
2022-08-18T16:07:05.562Z,11
2022-08-18T16:13:05.534Z,10
2022-08-18T16:19:05.566Z,11
2022-08-18T16:25:05.561Z,11
2022-08-18T16:31:05.573Z,10
2022-08-18T16:37:05.664Z,10
2022-08-18T16:43:05.563Z,10
2022-08-18T16:49:05.597Z,10
2022-08-18T16:55:05.574Z,10
2022-08-18T17:01:05.587Z,10
2022-08-18T17:07:05.597Z,10
2022-08-18T17:13:06.910Z,10
2022-08-18T17:19:05.576Z,10
2022-08-18T17:25:05.605Z,9
2022-08-18T17:31:05.640Z,11
2022-08-18T17:37:05.594Z,10
2022-08-18T17:43:05.573Z,10
2022-08-18T17:49:05.610Z,10
2022-08-18T17:55:05.595Z,11
2022-08-18T18:01:05.633Z,10
2022-08-18T18:07:05.589Z,10
2022-08-18T18:13:05.619Z,10
2022-08-18T18:19:05.581Z,11
2022-08-18T18:25:05.615Z,11
2022-08-18T18:31:05.601Z,10
2022-08-18T18:37:05.615Z,11
2022-08-18T18:43:05.612Z,11
2022-08-18T18:49:05.617Z,11
2022-08-18T18:55:05.606Z,11
2022-08-18T19:01:05.689Z,11
2022-08-18T19:07:05.606Z,11
2022-08-18T19:13:05.639Z,11
2022-08-18T19:19:35.753Z,12
2022-08-18T19:25:05.609Z,12
2022-08-18T19:31:05.624Z,12
2022-08-18T19:37:05.623Z,12
2022-08-18T19:43:05.611Z,12
2022-08-18T19:49:05.627Z,13
2022-08-18T19:55:05.620Z,11
2022-08-18T20:01:05.705Z,12
2022-08-18T20:07:05.625Z,12
2022-08-18T20:13:05.637Z,12
2022-08-18T20:19:16.070Z,12
2022-08-18T20:25:05.662Z,13
2022-08-18T20:31:05.649Z,11
2022-08-18T20:37:05.641Z,12
2022-08-18T20:43:07.691Z,11
2022-08-18T20:49:05.660Z,12
2022-08-18T20:55:11.427Z,12
2022-08-18T21:01:05.711Z,13
2022-08-18T21:07:11.893Z,12
2022-08-18T21:13:05.671Z,13
2022-08-18T21:19:05.652Z,12
2022-08-18T21:25:05.658Z,12
2022-08-18T21:31:42.474Z,12
2022-08-18T21:37:05.672Z,12
2022-08-18T21:43:05.667Z,12
2022-08-18T21:49:05.649Z,13
2022-08-18T21:55:05.650Z,13
2022-08-18T22:01:05.754Z,13
2022-08-18T22:07:05.651Z,14
2022-08-18T22:13:05.665Z,13
2022-08-18T22:19:05.653Z,13
2022-08-18T22:25:05.678Z,13
2022-08-18T22:31:05.683Z,13
2022-08-18T22:37:05.686Z,13
2022-08-18T22:43:05.697Z,14
2022-08-18T22:49:05.673Z,15
2022-08-18T22:55:06.633Z,15
2022-08-18T23:01:06.175Z,14
2022-08-18T23:07:05.670Z,14
2022-08-18T23:13:05.685Z,15
2022-08-18T23:19:05.681Z,14
2022-08-18T23:25:09.143Z,14
2022-08-18T23:31:05.677Z,15
2022-08-18T23:37:05.700Z,17
2022-08-18T23:43:05.668Z,19
2022-08-18T23:49:05.709Z,18
2022-08-18T23:55:05.700Z,18
